sensor_id;sensor_type;location;lat;lon;timestamp;P1;durP1;ratioP1;P2;durP2;ratioP2
8058;SDS011;4072;42.668;23.396;2023-08-20T00:00:13;6.60;;;5.97;;
8058;SDS011;4072;42.668;23.396;2023-08-20T00:02:43;7.47;;;5.97;;
8058;SDS011;4072;42.668;23.396;2023-08-20T00:05:16;8.17;;;6.27;;
8058;SDS011;4072;42.668;23.396;2023-08-20T00:07:45;6.43;;;5.73;;
8058;SDS011;4072;42.668;23.396;2023-08-20T00:10:13;10.10;;;6.03;;
8058;SDS011;4072;42.668;23.396;2023-08-20T00:12:42;6.90;;;5.67;;
8058;SDS011;4072;42.668;23.396;2023-08-20T00:15:10;6.30;;;5.70;;
8058;SDS011;4072;42.668;23.396;2023-08-20T00:17:39;6.70;;;6.00;;
8058;SDS011;4072;42.668;23.396;2023-08-20T00:20:08;6.70;;;6.10;;
8058;SDS011;4072;42.668;23.396;2023-08-20T00:22:42;6.57;;;5.97;;
8058;SDS011;4072;42.668;23.396;2023-08-20T00:25:12;7.27;;;6.57;;
8058;SDS011;4072;42.668;23.396;2023-08-20T00:27:41;7.87;;;6.50;;
8058;SDS011;4072;42.668;23.396;2023-08-20T00:30:10;7.37;;;6.60;;
8058;SDS011;4072;42.668;23.396;2023-08-20T00:32:39;6.97;;;6.33;;
8058;SDS011;4072;42.668;23.396;2023-08-20T00:35:08;7.43;;;6.67;;
8058;SDS011;4072;42.668;23.396;2023-08-20T00:37:36;6.43;;;5.83;;
8058;SDS011;4072;42.668;23.396;2023-08-20T00:40:06;7.03;;;6.40;;
8058;SDS011;4072;42.668;23.396;2023-08-20T00:42:38;6.00;;;5.40;;
8058;SDS011;4072;42.668;23.396;2023-08-20T00:45:07;6.50;;;6.00;;
8058;SDS011;4072;42.668;23.396;2023-08-20T00:47:35;6.20;;;5.70;;
8058;SDS011;4072;42.668;23.396;2023-08-20T00:50:05;6.40;;;5.80;;
8058;SDS011;4072;42.668;23.396;2023-08-20T00:52:34;7.43;;;6.43;;
8058;SDS011;4072;42.668;23.396;2023-08-20T00:55:04;7.57;;;6.10;;
8058;SDS011;4072;42.668;23.396;2023-08-20T00:57:37;6.70;;;6.10;;
8058;SDS011;4072;42.668;23.396;2023-08-20T01:00:07;8.43;;;7.03;;
8058;SDS011;4072;42.668;23.396;2023-08-20T01:02:38;7.43;;;6.73;;
8058;SDS011;4072;42.668;23.396;2023-08-20T01:05:10;6.90;;;6.30;;
8058;SDS011;4072;42.668;23.396;2023-08-20T01:07:42;8.30;;;6.33;;
8058;SDS011;4072;42.668;23.396;2023-08-20T01:10:21;7.10;;;6.50;;
8058;SDS011;4072;42.668;23.396;2023-08-20T01:12:57;6.60;;;6.00;;
8058;SDS011;4072;42.668;23.396;2023-08-20T01:15:25;7.60;;;6.90;;
8058;SDS011;4072;42.668;23.396;2023-08-20T01:17:54;7.00;;;6.40;;
8058;SDS011;4072;42.668;23.396;2023-08-20T01:20:22;6.90;;;6.10;;
8058;SDS011;4072;42.668;23.396;2023-08-20T01:26:10;6.97;;;6.27;;
8058;SDS011;4072;42.668;23.396;2023-08-20T01:28:51;7.63;;;6.93;;
8058;SDS011;4072;42.668;23.396;2023-08-20T01:31:19;8.20;;;6.50;;
8058;SDS011;4072;42.668;23.396;2023-08-20T01:33:48;9.60;;;7.50;;
8058;SDS011;4072;42.668;23.396;2023-08-20T01:36:17;8.77;;;6.97;;
8058;SDS011;4072;42.668;23.396;2023-08-20T01:38:45;9.17;;;7.47;;
8058;SDS011;4072;42.668;23.396;2023-08-20T01:41:13;10.40;;;7.20;;
8058;SDS011;4072;42.668;23.396;2023-08-20T01:43:43;7.43;;;6.73;;
8058;SDS011;4072;42.668;23.396;2023-08-20T01:46:12;7.87;;;7.07;;
8058;SDS011;4072;42.668;23.396;2023-08-20T01:48:41;7.80;;;7.00;;
8058;SDS011;4072;42.668;23.396;2023-08-20T01:51:10;8.13;;;7.43;;
8058;SDS011;4072;42.668;23.396;2023-08-20T01:53:38;7.60;;;6.90;;
8058;SDS011;4072;42.668;23.396;2023-08-20T01:56:10;7.47;;;6.83;;
8058;SDS011;4072;42.668;23.396;2023-08-20T01:58:38;9.97;;;7.57;;
8058;SDS011;4072;42.668;23.396;2023-08-20T02:01:07;8.00;;;7.30;;
8058;SDS011;4072;42.668;23.396;2023-08-20T02:03:37;10.50;;;7.60;;
8058;SDS011;4072;42.668;23.396;2023-08-20T02:06:05;12.30;;;7.73;;
8058;SDS011;4072;42.668;23.396;2023-08-20T02:08:35;8.83;;;7.67;;
8058;SDS011;4072;42.668;23.396;2023-08-20T02:11:03;7.73;;;7.00;;
8058;SDS011;4072;42.668;23.396;2023-08-20T02:13:32;7.97;;;7.27;;
8058;SDS011;4072;42.668;23.396;2023-08-20T02:16:00;8.10;;;7.30;;
8058;SDS011;4072;42.668;23.396;2023-08-20T02:18:29;8.47;;;6.93;;
8058;SDS011;4072;42.668;23.396;2023-08-20T02:20:59;8.50;;;7.57;;
8058;SDS011;4072;42.668;23.396;2023-08-20T02:23:29;8.23;;;7.43;;
8058;SDS011;4072;42.668;23.396;2023-08-20T02:25:57;8.97;;;8.10;;
8058;SDS011;4072;42.668;23.396;2023-08-20T02:28:26;13.07;;;7.87;;
8058;SDS011;4072;42.668;23.396;2023-08-20T02:30:55;8.77;;;7.30;;
8058;SDS011;4072;42.668;23.396;2023-08-20T02:33:24;7.83;;;7.13;;
8058;SDS011;4072;42.668;23.396;2023-08-20T02:35:52;8.37;;;7.47;;
8058;SDS011;4072;42.668;23.396;2023-08-20T02:38:22;8.17;;;6.93;;
8058;SDS011;4072;42.668;23.396;2023-08-20T02:40:50;8.17;;;7.37;;
8058;SDS011;4072;42.668;23.396;2023-08-20T02:43:18;10.60;;;7.83;;
8058;SDS011;4072;42.668;23.396;2023-08-20T02:45:47;8.63;;;7.17;;
8058;SDS011;4072;42.668;23.396;2023-08-20T02:48:15;8.33;;;7.47;;
8058;SDS011;4072;42.668;23.396;2023-08-20T02:50:43;9.73;;;8.23;;
8058;SDS011;4072;42.668;23.396;2023-08-20T02:53:11;8.17;;;7.43;;
8058;SDS011;4072;42.668;23.396;2023-08-20T02:55:42;8.47;;;7.67;;
8058;SDS011;4072;42.668;23.396;2023-08-20T02:58:10;8.57;;;7.77;;
8058;SDS011;4072;42.668;23.396;2023-08-20T03:00:38;9.93;;;7.70;;
8058;SDS011;4072;42.668;23.396;2023-08-20T03:03:06;7.97;;;7.27;;
8058;SDS011;4072;42.668;23.396;2023-08-20T03:05:36;8.53;;;7.77;;
8058;SDS011;4072;42.668;23.396;2023-08-20T03:08:05;9.30;;;8.40;;
8058;SDS011;4072;42.668;23.396;2023-08-20T03:10:33;8.13;;;7.27;;
8058;SDS011;4072;42.668;23.396;2023-08-20T03:13:03;12.43;;;8.10;;
8058;SDS011;4072;42.668;23.396;2023-08-20T03:15:32;7.93;;;7.20;;
8058;SDS011;4072;42.668;23.396;2023-08-20T03:18:00;12.00;;;7.57;;
8058;SDS011;4072;42.668;23.396;2023-08-20T03:20:28;8.97;;;8.07;;
8058;SDS011;4072;42.668;23.396;2023-08-20T03:22:57;10.33;;;8.13;;
8058;SDS011;4072;42.668;23.396;2023-08-20T03:25:25;7.87;;;7.17;;
8058;SDS011;4072;42.668;23.396;2023-08-20T03:27:54;8.87;;;8.10;;
8058;SDS011;4072;42.668;23.396;2023-08-20T03:30:24;8.27;;;7.57;;
8058;SDS011;4072;42.668;23.396;2023-08-20T03:32:52;9.53;;;8.37;;
8058;SDS011;4072;42.668;23.396;2023-08-20T03:35:20;7.97;;;7.27;;
8058;SDS011;4072;42.668;23.396;2023-08-20T03:37:48;11.50;;;9.07;;
8058;SDS011;4072;42.668;23.396;2023-08-20T03:40:17;8.57;;;7.70;;
8058;SDS011;4072;42.668;23.396;2023-08-20T03:42:45;9.10;;;8.30;;
8058;SDS011;4072;42.668;23.396;2023-08-20T03:45:14;8.07;;;7.37;;
8058;SDS011;4072;42.668;23.396;2023-08-20T03:47:43;8.60;;;7.77;;
8058;SDS011;4072;42.668;23.396;2023-08-20T03:50:13;8.27;;;7.47;;
8058;SDS011;4072;42.668;23.396;2023-08-20T03:52:42;8.23;;;7.17;;
8058;SDS011;4072;42.668;23.396;2023-08-20T03:55:10;10.37;;;7.70;;
8058;SDS011;4072;42.668;23.396;2023-08-20T03:57:38;8.80;;;7.90;;
8058;SDS011;4072;42.668;23.396;2023-08-20T04:00:07;9.63;;;7.60;;
8058;SDS011;4072;42.668;23.396;2023-08-20T04:02:36;7.40;;;6.80;;
8058;SDS011;4072;42.668;23.396;2023-08-20T04:05:06;8.60;;;7.10;;
8058;SDS011;4072;42.668;23.396;2023-08-20T04:07:35;8.23;;;7.53;;
8058;SDS011;4072;42.668;23.396;2023-08-20T04:10:04;7.20;;;6.60;;
8058;SDS011;4072;42.668;23.396;2023-08-20T04:12:33;7.27;;;6.40;;
8058;SDS011;4072;42.668;23.396;2023-08-20T04:15:01;7.13;;;6.53;;
8058;SDS011;4072;42.668;23.396;2023-08-20T04:17:30;7.37;;;6.57;;
8058;SDS011;4072;42.668;23.396;2023-08-20T04:19:59;7.27;;;6.50;;
8058;SDS011;4072;42.668;23.396;2023-08-20T04:22:28;8.27;;;6.77;;
8058;SDS011;4072;42.668;23.396;2023-08-20T04:24:57;9.60;;;7.23;;
8058;SDS011;4072;42.668;23.396;2023-08-20T04:27:30;8.90;;;6.87;;
8058;SDS011;4072;42.668;23.396;2023-08-20T04:30:00;7.33;;;6.40;;
8058;SDS011;4072;42.668;23.396;2023-08-20T04:32:28;7.90;;;7.20;;
8058;SDS011;4072;42.668;23.396;2023-08-20T04:34:56;8.50;;;7.60;;
8058;SDS011;4072;42.668;23.396;2023-08-20T04:37:24;7.87;;;7.07;;
8058;SDS011;4072;42.668;23.396;2023-08-20T04:39:54;12.83;;;6.90;;
8058;SDS011;4072;42.668;23.396;2023-08-20T04:42:22;11.43;;;7.17;;
8058;SDS011;4072;42.668;23.396;2023-08-20T04:44:50;15.33;;;7.47;;
8058;SDS011;4072;42.668;23.396;2023-08-20T04:47:19;9.20;;;7.20;;
8058;SDS011;4072;42.668;23.396;2023-08-20T04:49:47;11.47;;;8.27;;
8058;SDS011;4072;42.668;23.396;2023-08-20T04:52:15;8.43;;;7.73;;
8058;SDS011;4072;42.668;23.396;2023-08-20T04:54:43;9.23;;;7.83;;
8058;SDS011;4072;42.668;23.396;2023-08-20T04:57:13;10.43;;;6.80;;
8058;SDS011;4072;42.668;23.396;2023-08-20T04:59:41;10.10;;;7.10;;
8058;SDS011;4072;42.668;23.396;2023-08-20T05:02:11;7.63;;;6.60;;
8058;SDS011;4072;42.668;23.396;2023-08-20T05:04:41;10.27;;;6.77;;
8058;SDS011;4072;42.668;23.396;2023-08-20T05:07:09;10.13;;;7.13;;
8058;SDS011;4072;42.668;23.396;2023-08-20T05:09:37;12.77;;;7.27;;
8058;SDS011;4072;42.668;23.396;2023-08-20T05:12:06;8.83;;;6.73;;
8058;SDS011;4072;42.668;23.396;2023-08-20T05:14:37;8.73;;;7.57;;
8058;SDS011;4072;42.668;23.396;2023-08-20T05:17:05;9.33;;;7.37;;
8058;SDS011;4072;42.668;23.396;2023-08-20T05:19:33;7.87;;;7.07;;
8058;SDS011;4072;42.668;23.396;2023-08-20T05:22:02;12.03;;;8.70;;
8058;SDS011;4072;42.668;23.396;2023-08-20T05:24:30;11.17;;;8.67;;
8058;SDS011;4072;42.668;23.396;2023-08-20T05:27:05;9.93;;;9.03;;
8058;SDS011;4072;42.668;23.396;2023-08-20T05:29:34;10.90;;;8.53;;
8058;SDS011;4072;42.668;23.396;2023-08-20T05:32:04;12.67;;;10.57;;
8058;SDS011;4072;42.668;23.396;2023-08-20T05:34:35;11.17;;;9.50;;
8058;SDS011;4072;42.668;23.396;2023-08-20T05:37:04;10.97;;;9.83;;
8058;SDS011;4072;42.668;23.396;2023-08-20T05:39:36;13.57;;;9.33;;
8058;SDS011;4072;42.668;23.396;2023-08-20T05:42:05;11.67;;;8.53;;
8058;SDS011;4072;42.668;23.396;2023-08-20T05:44:34;9.93;;;8.93;;
8058;SDS011;4072;42.668;23.396;2023-08-20T05:47:02;13.63;;;8.35;;
8058;SDS011;4072;42.668;23.396;2023-08-20T05:49:33;12.25;;;9.77;;
8058;SDS011;4072;42.668;23.396;2023-08-20T05:52:02;12.27;;;9.10;;
8058;SDS011;4072;42.668;23.396;2023-08-20T05:54:31;10.70;;;9.57;;
8058;SDS011;4072;42.668;23.396;2023-08-20T05:56:59;10.20;;;8.82;;
8058;SDS011;4072;42.668;23.396;2023-08-20T05:59:28;9.60;;;8.68;;
8058;SDS011;4072;42.668;23.396;2023-08-20T06:01:57;9.90;;;8.35;;
8058;SDS011;4072;42.668;23.396;2023-08-20T06:04:25;13.98;;;9.23;;
8058;SDS011;4072;42.668;23.396;2023-08-20T06:06:55;16.33;;;9.98;;
8058;SDS011;4072;42.668;23.396;2023-08-20T06:09:23;9.18;;;8.35;;
8058;SDS011;4072;42.668;23.396;2023-08-20T06:11:51;13.13;;;8.43;;
8058;SDS011;4072;42.668;23.396;2023-08-20T06:14:19;9.25;;;8.35;;
8058;SDS011;4072;42.668;23.396;2023-08-20T06:16:48;10.95;;;7.80;;
8058;SDS011;4072;42.668;23.396;2023-08-20T06:19:16;10.43;;;8.90;;
8058;SDS011;4072;42.668;23.396;2023-08-20T06:21:44;9.30;;;8.38;;
8058;SDS011;4072;42.668;23.396;2023-08-20T06:24:14;9.77;;;8.07;;
8058;SDS011;4072;42.668;23.396;2023-08-20T06:26:42;12.20;;;8.60;;
8058;SDS011;4072;42.668;23.396;2023-08-20T06:29:11;9.15;;;8.30;;
8058;SDS011;4072;42.668;23.396;2023-08-20T06:31:39;8.75;;;7.82;;
8058;SDS011;4072;42.668;23.396;2023-08-20T06:34:08;16.15;;;12.27;;
8058;SDS011;4072;42.668;23.396;2023-08-20T06:36:36;9.55;;;8.63;;
8058;SDS011;4072;42.668;23.396;2023-08-20T06:39:05;13.38;;;8.20;;
8058;SDS011;4072;42.668;23.396;2023-08-20T06:41:34;10.52;;;8.88;;
8058;SDS011;4072;42.668;23.396;2023-08-20T06:44:03;14.10;;;12.52;;
8058;SDS011;4072;42.668;23.396;2023-08-20T06:46:33;9.77;;;8.77;;
8058;SDS011;4072;42.668;23.396;2023-08-20T06:49:01;10.30;;;8.75;;
8058;SDS011;4072;42.668;23.396;2023-08-20T06:51:30;13.30;;;8.88;;
8058;SDS011;4072;42.668;23.396;2023-08-20T06:53:59;15.80;;;8.55;;
8058;SDS011;4072;42.668;23.396;2023-08-20T06:56:27;13.90;;;9.00;;
8058;SDS011;4072;42.668;23.396;2023-08-20T06:58:57;12.07;;;8.55;;
8058;SDS011;4072;42.668;23.396;2023-08-20T07:01:25;12.95;;;8.40;;
8058;SDS011;4072;42.668;23.396;2023-08-20T07:03:54;14.07;;;8.50;;
8058;SDS011;4072;42.668;23.396;2023-08-20T07:06:22;12.80;;;8.45;;
8058;SDS011;4072;42.668;23.396;2023-08-20T07:08:52;12.27;;;8.80;;
8058;SDS011;4072;42.668;23.396;2023-08-20T07:11:20;14.88;;;7.80;;
8058;SDS011;4072;42.668;23.396;2023-08-20T07:13:48;12.88;;;7.70;;
8058;SDS011;4072;42.668;23.396;2023-08-20T07:16:18;17.52;;;8.40;;
8058;SDS011;4072;42.668;23.396;2023-08-20T07:18:46;13.40;;;8.55;;
8058;SDS011;4072;42.668;23.396;2023-08-20T07:21:14;9.20;;;8.13;;
8058;SDS011;4072;42.668;23.396;2023-08-20T07:23:44;11.10;;;7.78;;
8058;SDS011;4072;42.668;23.396;2023-08-20T07:26:12;7.38;;;6.68;;
8058;SDS011;4072;42.668;23.396;2023-08-20T07:28:41;9.52;;;6.95;;
8058;SDS011;4072;42.668;23.396;2023-08-20T07:31:26;7.25;;;6.55;;
8058;SDS011;4072;42.668;23.396;2023-08-20T07:33:57;7.00;;;6.28;;
8058;SDS011;4072;42.668;23.396;2023-08-20T07:36:29;7.40;;;5.72;;
8058;SDS011;4072;42.668;23.396;2023-08-20T07:38:58;10.25;;;6.50;;
8058;SDS011;4072;42.668;23.396;2023-08-20T07:41:28;6.80;;;5.90;;
8058;SDS011;4072;42.668;23.396;2023-08-20T07:43:57;10.10;;;6.32;;
8058;SDS011;4072;42.668;23.396;2023-08-20T07:46:28;6.22;;;5.60;;
8058;SDS011;4072;42.668;23.396;2023-08-20T07:48:57;6.75;;;6.10;;
8058;SDS011;4072;42.668;23.396;2023-08-20T07:51:25;8.90;;;5.72;;
8058;SDS011;4072;42.668;23.396;2023-08-20T07:53:54;6.60;;;5.50;;
8058;SDS011;4072;42.668;23.396;2023-08-20T07:56:22;8.57;;;7.47;;
8058;SDS011;4072;42.668;23.396;2023-08-20T07:58:50;6.78;;;5.63;;
8058;SDS011;4072;42.668;23.396;2023-08-20T08:01:18;7.07;;;6.47;;
8058;SDS011;4072;42.668;23.396;2023-08-20T08:03:48;5.75;;;5.18;;
8058;SDS011;4072;42.668;23.396;2023-08-20T08:06:16;7.57;;;5.40;;
8058;SDS011;4072;42.668;23.396;2023-08-20T08:08:44;9.35;;;5.50;;
8058;SDS011;4072;42.668;23.396;2023-08-20T08:11:13;6.15;;;5.35;;
8058;SDS011;4072;42.668;23.396;2023-08-20T08:13:41;5.93;;;5.53;;
8058;SDS011;4072;42.668;23.396;2023-08-20T08:16:10;5.93;;;5.43;;
8058;SDS011;4072;42.668;23.396;2023-08-20T08:18:39;9.05;;;5.13;;
8058;SDS011;4072;42.668;23.396;2023-08-20T08:21:09;5.70;;;5.10;;
8058;SDS011;4072;42.668;23.396;2023-08-20T08:23:37;5.45;;;4.95;;
8058;SDS011;4072;42.668;23.396;2023-08-20T08:26:05;5.75;;;5.05;;
8058;SDS011;4072;42.668;23.396;2023-08-20T08:28:33;4.97;;;4.57;;
8058;SDS011;4072;42.668;23.396;2023-08-20T08:31:02;5.43;;;4.90;;
8058;SDS011;4072;42.668;23.396;2023-08-20T08:33:33;5.43;;;4.60;;
8058;SDS011;4072;42.668;23.396;2023-08-20T08:36:02;5.05;;;4.55;;
8058;SDS011;4072;42.668;23.396;2023-08-20T08:38:33;5.38;;;4.88;;
8058;SDS011;4072;42.668;23.396;2023-08-20T08:41:03;4.32;;;4.00;;
8058;SDS011;4072;42.668;23.396;2023-08-20T08:43:31;4.80;;;4.40;;
8058;SDS011;4072;42.668;23.396;2023-08-20T08:46:00;8.65;;;4.72;;
8058;SDS011;4072;42.668;23.396;2023-08-20T08:48:31;4.25;;;3.85;;
8058;SDS011;4072;42.668;23.396;2023-08-20T08:51:00;5.65;;;4.22;;
8058;SDS011;4072;42.668;23.396;2023-08-20T08:53:29;5.10;;;4.05;;
8058;SDS011;4072;42.668;23.396;2023-08-20T08:56:02;5.00;;;4.28;;
8058;SDS011;4072;42.668;23.396;2023-08-20T08:58:32;6.07;;;4.50;;
8058;SDS011;4072;42.668;23.396;2023-08-20T09:01:00;3.83;;;3.53;;
8058;SDS011;4072;42.668;23.396;2023-08-20T09:03:29;3.75;;;3.40;;
8058;SDS011;4072;42.668;23.396;2023-08-20T09:05:59;4.65;;;3.83;;
8058;SDS011;4072;42.668;23.396;2023-08-20T09:08:30;4.43;;;3.95;;
8058;SDS011;4072;42.668;23.396;2023-08-20T09:10:59;4.43;;;4.03;;
8058;SDS011;4072;42.668;23.396;2023-08-20T09:13:34;4.28;;;3.97;;
8058;SDS011;4072;42.668;23.396;2023-08-20T09:16:04;4.20;;;3.90;;
8058;SDS011;4072;42.668;23.396;2023-08-20T09:18:34;5.00;;;3.85;;
8058;SDS011;4072;42.668;23.396;2023-08-20T09:21:06;4.65;;;3.63;;
8058;SDS011;4072;42.668;23.396;2023-08-20T09:23:36;5.10;;;4.57;;
8058;SDS011;4072;42.668;23.396;2023-08-20T09:26:05;4.22;;;3.83;;
8058;SDS011;4072;42.668;23.396;2023-08-20T09:28:41;5.93;;;4.03;;
8058;SDS011;4072;42.668;23.396;2023-08-20T09:31:11;6.47;;;3.92;;
8058;SDS011;4072;42.668;23.396;2023-08-20T09:33:48;4.75;;;3.95;;
8058;SDS011;4072;42.668;23.396;2023-08-20T09:36:16;4.28;;;3.55;;
8058;SDS011;4072;42.668;23.396;2023-08-20T09:38:45;3.88;;;3.58;;
8058;SDS011;4072;42.668;23.396;2023-08-20T09:41:16;3.53;;;2.95;;
8058;SDS011;4072;42.668;23.396;2023-08-20T09:43:46;3.10;;;2.90;;
8058;SDS011;4072;42.668;23.396;2023-08-20T09:46:20;3.33;;;3.08;;
8058;SDS011;4072;42.668;23.396;2023-08-20T09:48:51;3.92;;;3.47;;
8058;SDS011;4072;42.668;23.396;2023-08-20T09:51:25;7.28;;;3.28;;
8058;SDS011;4072;42.668;23.396;2023-08-20T09:53:56;6.05;;;3.30;;
8058;SDS011;4072;42.668;23.396;2023-08-20T09:56:30;4.25;;;3.47;;
8058;SDS011;4072;42.668;23.396;2023-08-20T09:59:04;3.55;;;3.25;;
8058;SDS011;4072;42.668;23.396;2023-08-20T10:01:33;5.40;;;3.35;;
8058;SDS011;4072;42.668;23.396;2023-08-20T10:04:03;3.30;;;3.10;;
8058;SDS011;4072;42.668;23.396;2023-08-20T10:06:32;4.38;;;3.50;;
8058;SDS011;4072;42.668;23.396;2023-08-20T10:09:03;3.83;;;3.50;;
8058;SDS011;4072;42.668;23.396;2023-08-20T10:11:33;3.60;;;3.30;;
8058;SDS011;4072;42.668;23.396;2023-08-20T10:14:07;3.83;;;3.40;;
8058;SDS011;4072;42.668;23.396;2023-08-20T10:16:35;5.28;;;3.50;;
8058;SDS011;4072;42.668;23.396;2023-08-20T10:19:03;4.75;;;3.10;;
8058;SDS011;4072;42.668;23.396;2023-08-20T10:21:34;3.35;;;3.15;;
8058;SDS011;4072;42.668;23.396;2023-08-20T10:24:03;3.30;;;3.10;;
8058;SDS011;4072;42.668;23.396;2023-08-20T10:26:33;3.90;;;3.42;;
8058;SDS011;4072;42.668;23.396;2023-08-20T10:32:05;3.70;;;3.35;;
8058;SDS011;4072;42.668;23.396;2023-08-20T10:34:35;4.50;;;4.10;;
8058;SDS011;4072;42.668;23.396;2023-08-20T10:37:11;4.13;;;3.80;;
8058;SDS011;4072;42.668;23.396;2023-08-20T10:39:41;3.60;;;3.30;;
8058;SDS011;4072;42.668;23.396;2023-08-20T10:42:17;4.00;;;3.70;;
8058;SDS011;4072;42.668;23.396;2023-08-20T10:45:00;3.75;;;3.45;;
8058;SDS011;4072;42.668;23.396;2023-08-20T10:47:41;4.13;;;3.72;;
8058;SDS011;4072;42.668;23.396;2023-08-20T10:50:11;4.18;;;3.78;;
8058;SDS011;4072;42.668;23.396;2023-08-20T10:52:47;4.13;;;3.40;;
8058;SDS011;4072;42.668;23.396;2023-08-20T10:55:21;3.97;;;3.67;;
8058;SDS011;4072;42.668;23.396;2023-08-20T10:57:54;5.53;;;3.85;;
8058;SDS011;4072;42.668;23.396;2023-08-20T11:00:27;4.57;;;4.00;;
8058;SDS011;4072;42.668;23.396;2023-08-20T11:02:56;5.13;;;3.45;;
8058;SDS011;4072;42.668;23.396;2023-08-20T11:05:26;4.95;;;3.65;;
8058;SDS011;4072;42.668;23.396;2023-08-20T11:07:55;5.28;;;3.60;;
8058;SDS011;4072;42.668;23.396;2023-08-20T11:10:23;3.85;;;3.55;;
8058;SDS011;4072;42.668;23.396;2023-08-20T11:12:52;4.55;;;3.55;;
8058;SDS011;4072;42.668;23.396;2023-08-20T11:15:20;4.10;;;3.75;;
8058;SDS011;4072;42.668;23.396;2023-08-20T11:17:50;4.55;;;3.90;;
8058;SDS011;4072;42.668;23.396;2023-08-20T11:20:19;4.78;;;3.97;;
8058;SDS011;4072;42.668;23.396;2023-08-20T11:22:47;8.18;;;6.28;;
8058;SDS011;4072;42.668;23.396;2023-08-20T11:25:16;4.18;;;3.78;;
8058;SDS011;4072;42.668;23.396;2023-08-20T11:27:45;4.20;;;3.80;;
8058;SDS011;4072;42.668;23.396;2023-08-20T11:30:13;4.13;;;3.40;;
8058;SDS011;4072;42.668;23.396;2023-08-20T11:32:43;4.32;;;4.00;;
8058;SDS011;4072;42.668;23.396;2023-08-20T11:35:14;3.25;;;3.05;;
8058;SDS011;4072;42.668;23.396;2023-08-20T11:37:43;5.10;;;3.55;;
8058;SDS011;4072;42.668;23.396;2023-08-20T11:40:12;4.45;;;3.88;;
8058;SDS011;4072;42.668;23.396;2023-08-20T11:42:40;3.55;;;3.25;;
8058;SDS011;4072;42.668;23.396;2023-08-20T11:45:10;4.40;;;4.00;;
8058;SDS011;4072;42.668;23.396;2023-08-20T11:47:39;4.28;;;3.90;;
8058;SDS011;4072;42.668;23.396;2023-08-20T11:50:08;3.95;;;3.65;;
8058;SDS011;4072;42.668;23.396;2023-08-20T11:52:38;7.20;;;4.03;;
8058;SDS011;4072;42.668;23.396;2023-08-20T11:55:07;3.75;;;3.45;;
8058;SDS011;4072;42.668;23.396;2023-08-20T11:57:36;4.63;;;3.92;;
8058;SDS011;4072;42.668;23.396;2023-08-20T12:00:05;5.72;;;4.45;;
8058;SDS011;4072;42.668;23.396;2023-08-20T12:02:38;4.45;;;4.00;;
8058;SDS011;4072;42.668;23.396;2023-08-20T12:05:08;4.28;;;3.97;;
8058;SDS011;4072;42.668;23.396;2023-08-20T12:07:38;4.47;;;3.85;;
8058;SDS011;4072;42.668;23.396;2023-08-20T12:10:18;4.15;;;3.75;;
8058;SDS011;4072;42.668;23.396;2023-08-20T12:12:48;5.20;;;3.58;;
8058;SDS011;4072;42.668;23.396;2023-08-20T12:15:17;6.60;;;3.50;;
8058;SDS011;4072;42.668;23.396;2023-08-20T12:17:54;3.83;;;3.40;;
8058;SDS011;4072;42.668;23.396;2023-08-20T12:20:26;4.43;;;4.03;;
8058;SDS011;4072;42.668;23.396;2023-08-20T12:22:58;5.53;;;3.97;;
8058;SDS011;4072;42.668;23.396;2023-08-20T12:25:30;5.63;;;3.80;;
8058;SDS011;4072;42.668;23.396;2023-08-20T12:28:00;4.18;;;3.78;;
8058;SDS011;4072;42.668;23.396;2023-08-20T12:30:30;3.85;;;3.53;;
8058;SDS011;4072;42.668;23.396;2023-08-20T12:33:04;5.00;;;4.30;;
8058;SDS011;4072;42.668;23.396;2023-08-20T12:35:33;4.28;;;3.97;;
8058;SDS011;4072;42.668;23.396;2023-08-20T12:38:04;5.25;;;3.90;;
8058;SDS011;4072;42.668;23.396;2023-08-20T12:40:34;4.28;;;3.55;;
8058;SDS011;4072;42.668;23.396;2023-08-20T12:43:02;5.50;;;3.58;;
8058;SDS011;4072;42.668;23.396;2023-08-20T12:45:30;8.85;;;3.90;;
8058;SDS011;4072;42.668;23.396;2023-08-20T12:47:59;5.32;;;4.03;;
8058;SDS011;4072;42.668;23.396;2023-08-20T12:50:28;3.88;;;3.20;;
8058;SDS011;4072;42.668;23.396;2023-08-20T12:52:56;4.68;;;3.33;;
8058;SDS011;4072;42.668;23.396;2023-08-20T12:55:27;4.82;;;3.38;;
8058;SDS011;4072;42.668;23.396;2023-08-20T12:57:56;4.78;;;3.85;;
8058;SDS011;4072;42.668;23.396;2023-08-20T13:00:26;4.40;;;4.00;;
8058;SDS011;4072;42.668;23.396;2023-08-20T13:02:54;5.45;;;3.85;;
8058;SDS011;4072;42.668;23.396;2023-08-20T13:05:24;4.13;;;3.67;;
8058;SDS011;4072;42.668;23.396;2023-08-20T13:07:54;3.72;;;3.40;;
8058;SDS011;4072;42.668;23.396;2023-08-20T13:10:23;3.35;;;3.15;;
8058;SDS011;4072;42.668;23.396;2023-08-20T13:12:59;8.55;;;4.63;;
8058;SDS011;4072;42.668;23.396;2023-08-20T13:15:29;3.80;;;3.50;;
8058;SDS011;4072;42.668;23.396;2023-08-20T13:17:59;4.95;;;3.85;;
8058;SDS011;4072;42.668;23.396;2023-08-20T13:20:28;4.57;;;4.03;;
8058;SDS011;4072;42.668;23.396;2023-08-20T13:22:56;3.72;;;3.38;;
8058;SDS011;4072;42.668;23.396;2023-08-20T13:25:27;3.40;;;3.13;;
8058;SDS011;4072;42.668;23.396;2023-08-20T13:28:02;4.85;;;3.92;;
8058;SDS011;4072;42.668;23.396;2023-08-20T13:30:32;7.78;;;3.60;;
8058;SDS011;4072;42.668;23.396;2023-08-20T13:33:01;4.00;;;3.65;;
8058;SDS011;4072;42.668;23.396;2023-08-20T13:35:30;3.63;;;3.33;;
8058;SDS011;4072;42.668;23.396;2023-08-20T13:37:58;4.80;;;3.92;;
8058;SDS011;4072;42.668;23.396;2023-08-20T13:40:27;3.53;;;3.15;;
8058;SDS011;4072;42.668;23.396;2023-08-20T13:42:55;3.65;;;3.30;;
8058;SDS011;4072;42.668;23.396;2023-08-20T13:45:25;3.70;;;3.40;;
8058;SDS011;4072;42.668;23.396;2023-08-20T13:47:55;3.53;;;3.33;;
8058;SDS011;4072;42.668;23.396;2023-08-20T13:50:25;3.83;;;3.50;;
8058;SDS011;4072;42.668;23.396;2023-08-20T13:52:53;3.80;;;3.50;;
8058;SDS011;4072;42.668;23.396;2023-08-20T13:55:24;3.88;;;3.45;;
8058;SDS011;4072;42.668;23.396;2023-08-20T13:57:52;3.70;;;3.40;;
8058;SDS011;4072;42.668;23.396;2023-08-20T14:00:21;3.40;;;3.08;;
8058;SDS011;4072;42.668;23.396;2023-08-20T14:02:51;4.22;;;3.92;;
8058;SDS011;4072;42.668;23.396;2023-08-20T14:05:19;3.70;;;3.40;;
8058;SDS011;4072;42.668;23.396;2023-08-20T14:07:48;4.53;;;3.42;;
8058;SDS011;4072;42.668;23.396;2023-08-20T14:10:16;4.53;;;3.60;;
8058;SDS011;4072;42.668;23.396;2023-08-20T14:12:44;4.65;;;3.42;;
8058;SDS011;4072;42.668;23.396;2023-08-20T14:15:13;4.32;;;3.67;;
8058;SDS011;4072;42.668;23.396;2023-08-20T14:17:42;3.25;;;3.00;;
8058;SDS011;4072;42.668;23.396;2023-08-20T14:20:13;4.20;;;3.40;;
8058;SDS011;4072;42.668;23.396;2023-08-20T14:22:42;3.72;;;3.40;;
8058;SDS011;4072;42.668;23.396;2023-08-20T14:25:11;3.45;;;3.08;;
8058;SDS011;4072;42.668;23.396;2023-08-20T14:27:40;3.45;;;3.25;;
8058;SDS011;4072;42.668;23.396;2023-08-20T14:30:08;3.20;;;3.00;;
8058;SDS011;4072;42.668;23.396;2023-08-20T14:32:37;3.65;;;3.45;;
8058;SDS011;4072;42.668;23.396;2023-08-20T14:35:09;3.72;;;3.40;;
8058;SDS011;4072;42.668;23.396;2023-08-20T14:37:39;3.20;;;2.90;;
8058;SDS011;4072;42.668;23.396;2023-08-20T14:40:07;3.20;;;3.00;;
8058;SDS011;4072;42.668;23.396;2023-08-20T14:42:38;4.15;;;3.53;;
8058;SDS011;4072;42.668;23.396;2023-08-20T14:45:08;4.75;;;3.15;;
8058;SDS011;4072;42.668;23.396;2023-08-20T14:47:37;4.53;;;3.50;;
8058;SDS011;4072;42.668;23.396;2023-08-20T14:50:06;4.22;;;3.55;;
8058;SDS011;4072;42.668;23.396;2023-08-20T14:52:35;3.30;;;3.08;;
8058;SDS011;4072;42.668;23.396;2023-08-20T14:55:05;4.45;;;3.60;;
8058;SDS011;4072;42.668;23.396;2023-08-20T14:57:36;3.33;;;3.08;;
8058;SDS011;4072;42.668;23.396;2023-08-20T15:00:17;3.83;;;3.33;;
8058;SDS011;4072;42.668;23.396;2023-08-20T15:02:50;3.22;;;3.03;;
8058;SDS011;4072;42.668;23.396;2023-08-20T15:05:18;3.50;;;3.20;;
8058;SDS011;4072;42.668;23.396;2023-08-20T15:07:47;4.55;;;3.40;;
8058;SDS011;4072;42.668;23.396;2023-08-20T15:10:17;5.55;;;2.97;;
8058;SDS011;4072;42.668;23.396;2023-08-20T15:12:46;4.43;;;3.30;;
8058;SDS011;4072;42.668;23.396;2023-08-20T15:15:14;3.03;;;2.78;;
8058;SDS011;4072;42.668;23.396;2023-08-20T15:17:43;3.50;;;3.20;;
8058;SDS011;4072;42.668;23.396;2023-08-20T15:20:11;5.70;;;3.58;;